createdAt,value
2019-02-02T00:01:18.708Z,22.58
2019-02-02T00:03:47.608Z,23.77
2019-02-02T00:06:16.616Z,24.52
2019-02-02T00:08:46.148Z,24.75
2019-02-02T00:11:15.084Z,24.63
2019-02-02T00:13:44.105Z,24.15
2019-02-02T00:16:13.125Z,25.12
2019-02-02T00:18:42.325Z,24.05
2019-02-02T00:21:11.352Z,22.60
2019-02-02T00:23:40.212Z,23.35
2019-02-02T00:26:09.200Z,22.98
2019-02-02T00:28:38.164Z,23.75
2019-02-02T00:31:07.396Z,25.02
2019-02-02T00:33:36.720Z,24.25
2019-02-02T00:36:06.008Z,23.65
2019-02-02T00:38:34.827Z,24.87
2019-02-02T00:41:04.611Z,23.45
2019-02-02T00:43:33.597Z,24.07
2019-02-02T00:46:02.596Z,23.10
2019-02-02T00:48:31.513Z,24.02
2019-02-02T00:51:00.541Z,24.05
2019-02-02T00:53:29.702Z,24.10
2019-02-02T00:55:58.611Z,23.57
2019-02-02T00:58:27.584Z,22.90
2019-02-02T01:00:56.592Z,24.12
2019-02-02T01:03:25.610Z,23.35
2019-02-02T01:05:54.404Z,23.07
2019-02-02T01:08:23.376Z,24.57
2019-02-02T01:10:52.848Z,23.00
2019-02-02T01:13:21.737Z,23.87
2019-02-02T01:15:50.628Z,23.75
2019-02-02T01:18:19.728Z,25.75
2019-02-02T01:20:48.748Z,24.90
2019-02-02T01:23:17.564Z,24.55
2019-02-02T01:25:46.872Z,24.52
2019-02-02T01:28:15.885Z,25.12
2019-02-02T01:30:44.849Z,25.02
2019-02-02T01:33:13.824Z,24.50
2019-02-02T01:35:42.968Z,25.70
2019-02-02T01:38:11.936Z,26.68
2019-02-02T01:40:40.853Z,29.35
2019-02-02T01:43:09.760Z,27.67
2019-02-02T01:45:38.748Z,27.00
2019-02-02T01:48:07.632Z,25.80
2019-02-02T01:50:36.628Z,25.02
2019-02-02T01:53:05.851Z,25.95
2019-02-02T01:55:34.832Z,24.70
2019-02-02T01:58:03.800Z,26.65
2019-02-02T02:00:33.346Z,26.27
2019-02-02T02:03:02.916Z,25.85
2019-02-02T02:05:31.800Z,25.15
2019-02-02T02:08:00.956Z,24.35
2019-02-02T02:10:29.954Z,26.55
2019-02-02T02:12:58.891Z,26.07
2019-02-02T02:15:28.172Z,23.32
2019-02-02T02:17:57.165Z,24.37
2019-02-02T02:20:26.367Z,24.47
2019-02-02T02:22:55.364Z,25.68
2019-02-02T02:25:24.285Z,25.40
2019-02-02T02:27:53.263Z,27.85
2019-02-02T02:30:23.336Z,28.15
2019-02-02T02:32:52.968Z,27.32
2019-02-02T02:35:22.560Z,27.77
2019-02-02T02:37:51.544Z,25.10
2019-02-02T02:40:22.061Z,25.45
2019-02-02T02:42:51.914Z,24.12
2019-02-02T02:45:21.600Z,24.87
2019-02-02T02:47:51.224Z,24.95
2019-02-02T02:50:21.164Z,24.95
2019-02-02T02:52:50.718Z,24.50
2019-02-02T02:55:19.973Z,26.20
2019-02-02T02:57:49.000Z,25.12
2019-02-02T03:00:20.153Z,25.43
2019-02-02T03:02:49.665Z,26.77
2019-02-02T03:05:20.069Z,24.35
2019-02-02T03:07:50.200Z,24.80
2019-02-02T03:10:20.224Z,24.45
2019-02-02T03:12:49.782Z,24.57
2019-02-02T03:15:19.087Z,25.08
2019-02-02T03:17:48.380Z,24.52
2019-02-02T03:20:18.303Z,26.52
2019-02-02T03:22:47.504Z,25.95
2019-02-02T03:25:21.664Z,25.32
2019-02-02T03:27:50.660Z,25.15
2019-02-02T03:30:20.403Z,26.10
2019-02-02T03:32:50.015Z,26.37
2019-02-02T03:35:20.878Z,26.10
2019-02-02T03:37:50.031Z,24.52
2019-02-02T03:40:20.636Z,24.32
2019-02-02T03:42:50.177Z,25.37
2019-02-02T03:45:21.057Z,24.87
2019-02-02T03:47:51.584Z,25.40
2019-02-02T03:50:20.585Z,24.37
2019-02-02T03:52:49.864Z,24.12
2019-02-02T03:55:18.872Z,23.92
2019-02-02T03:57:47.856Z,23.35
2019-02-02T04:00:18.403Z,26.50
2019-02-02T04:02:47.366Z,25.82
2019-02-02T04:05:18.543Z,25.60
2019-02-02T04:07:47.339Z,26.80
2019-02-02T04:10:16.861Z,24.67
2019-02-02T04:12:46.142Z,25.20
2019-02-02T04:15:15.817Z,25.15
2019-02-02T04:17:44.989Z,24.95
2019-02-02T04:20:18.972Z,27.00
2019-02-02T04:22:48.533Z,24.87
2019-02-02T04:25:18.569Z,27.00
2019-02-02T04:27:47.556Z,24.67
2019-02-02T04:30:18.939Z,24.20
2019-02-02T04:32:47.904Z,24.87
2019-02-02T04:35:17.228Z,24.43
2019-02-02T04:37:46.143Z,26.10
2019-02-02T04:40:15.468Z,24.72
2019-02-02T04:42:44.412Z,26.80
2019-02-02T04:45:13.920Z,25.27
2019-02-02T04:47:42.912Z,30.77
2019-02-02T04:50:13.888Z,29.63
2019-02-02T04:52:43.558Z,26.05
2019-02-02T04:55:14.021Z,26.85
2019-02-02T04:57:43.104Z,26.05
2019-02-02T05:00:15.408Z,25.50
2019-02-02T05:02:44.227Z,25.85
2019-02-02T05:05:14.159Z,26.23
2019-02-02T05:07:43.155Z,23.50
2019-02-02T05:10:14.514Z,25.20
2019-02-02T05:12:43.528Z,24.20
2019-02-02T05:15:12.753Z,24.35
2019-02-02T05:17:41.768Z,24.82
2019-02-02T05:20:11.876Z,24.82
2019-02-02T05:22:40.892Z,23.83
2019-02-02T05:25:10.189Z,25.23
2019-02-02T05:27:39.101Z,24.23
2019-02-02T05:30:12.240Z,26.75
2019-02-02T05:32:41.228Z,25.15
2019-02-02T05:35:10.581Z,23.32
2019-02-02T05:37:39.556Z,24.70
2019-02-02T05:40:10.636Z,24.60
2019-02-02T05:42:39.652Z,25.90
2019-02-02T05:45:10.438Z,25.48
2019-02-02T05:47:39.416Z,26.57
2019-02-02T05:50:10.453Z,26.52
2019-02-02T05:52:39.469Z,25.57
2019-02-02T05:55:10.132Z,28.30
2019-02-02T05:57:39.246Z,25.90
2019-02-02T06:00:13.213Z,28.15
2019-02-02T06:02:42.196Z,26.30
2019-02-02T06:05:11.196Z,26.12
2019-02-02T06:07:40.122Z,27.60
2019-02-02T06:10:11.256Z,24.70
2019-02-02T06:12:40.167Z,26.68
2019-02-02T06:15:09.738Z,27.45
2019-02-02T06:17:38.660Z,26.93
2019-02-02T06:20:09.060Z,27.30
2019-02-02T06:22:37.976Z,27.22
2019-02-02T06:25:08.491Z,27.80
2019-02-02T06:27:37.493Z,27.87
2019-02-02T06:30:09.637Z,26.45
2019-02-02T06:32:38.684Z,28.02
2019-02-02T06:35:09.456Z,27.17
2019-02-02T06:37:38.345Z,26.90
2019-02-02T06:40:08.160Z,27.20
2019-02-02T06:42:37.184Z,28.92
2019-02-02T06:47:40.680Z,25.88
2019-02-02T06:50:11.993Z,25.55
2019-02-02T06:52:41.060Z,27.07
2019-02-02T06:55:10.856Z,28.65
2019-02-02T06:57:39.736Z,25.92
2019-02-02T07:00:16.307Z,27.05
2019-02-02T07:02:42.324Z,27.05
2019-02-02T07:05:11.720Z,26.13
2019-02-02T07:07:41.033Z,26.17
2019-02-02T07:10:12.799Z,27.82
2019-02-02T07:12:42.092Z,29.90
2019-02-02T07:15:12.542Z,28.00
2019-02-02T07:17:41.597Z,27.17
2019-02-02T07:20:12.235Z,30.27
2019-02-02T07:22:41.228Z,27.85
2019-02-02T07:25:10.749Z,26.53
2019-02-02T07:27:39.768Z,27.52
2019-02-02T07:30:14.692Z,28.65
2019-02-02T07:32:43.837Z,27.80
2019-02-02T07:35:13.161Z,28.80
2019-02-02T07:37:42.065Z,27.13
2019-02-02T07:40:13.652Z,27.93
2019-02-02T07:42:42.624Z,28.32
2019-02-02T07:45:14.744Z,27.62
2019-02-02T07:47:43.627Z,29.42
2019-02-02T07:50:13.938Z,29.60
2019-02-02T07:52:44.445Z,29.65
2019-02-02T07:55:14.744Z,30.30
2019-02-02T07:57:44.229Z,29.27
2019-02-02T08:00:25.225Z,28.98
2019-02-02T08:02:54.172Z,29.98
2019-02-02T08:05:23.543Z,28.98
2019-02-02T08:07:52.487Z,29.57
2019-02-02T08:10:21.798Z,32.50
2019-02-02T08:12:50.601Z,30.43
2019-02-02T08:15:22.153Z,33.18
2019-02-02T08:17:52.312Z,33.20
2019-02-02T08:20:21.308Z,32.73
2019-02-02T08:22:50.276Z,32.23
2019-02-02T08:25:19.757Z,34.03
2019-02-02T08:27:48.765Z,33.25
2019-02-02T08:30:20.188Z,30.48
2019-02-02T08:32:49.060Z,31.90
2019-02-02T08:35:18.135Z,32.93
2019-02-02T08:37:47.136Z,33.40
2019-02-02T08:40:16.557Z,32.78
2019-02-02T08:42:45.826Z,32.78
2019-02-02T08:45:15.542Z,33.70
2019-02-02T08:47:44.617Z,32.95
2019-02-02T08:50:16.261Z,33.27
2019-02-02T08:52:45.267Z,34.67
2019-02-02T08:55:14.285Z,34.20
2019-02-02T08:57:43.288Z,33.63
2019-02-02T09:00:15.197Z,34.77
2019-02-02T09:02:44.141Z,36.43
2019-02-02T09:05:14.100Z,36.15
2019-02-02T09:07:43.156Z,36.03
2019-02-02T09:10:15.040Z,36.20
2019-02-02T09:12:44.353Z,35.33
2019-02-02T09:15:14.029Z,38.70
2019-02-02T09:17:42.955Z,44.00
2019-02-02T09:20:12.700Z,40.55
2019-02-02T09:22:41.716Z,34.83
2019-02-02T09:25:12.144Z,32.13
2019-02-02T09:27:41.424Z,34.30
2019-02-02T09:30:17.152Z,34.35
2019-02-02T09:32:46.073Z,31.67
2019-02-02T09:35:15.549Z,33.48
2019-02-02T09:37:44.784Z,32.47
2019-02-02T09:40:15.672Z,30.68
2019-02-02T09:42:44.652Z,31.80
2019-02-02T09:45:15.248Z,31.33
2019-02-02T09:47:44.204Z,30.85
2019-02-02T09:50:15.748Z,31.57
2019-02-02T09:52:44.792Z,33.02
2019-02-02T09:55:15.248Z,33.87
2019-02-02T09:57:44.464Z,33.70
2019-02-02T10:00:19.441Z,33.73
2019-02-02T10:02:48.526Z,32.90
2019-02-02T10:05:19.232Z,34.75
2019-02-02T10:07:48.976Z,33.23
2019-02-02T10:10:20.228Z,32.73
2019-02-02T10:12:49.235Z,34.23
2019-02-02T10:15:18.837Z,34.63
2019-02-02T10:17:49.860Z,34.10
2019-02-02T10:20:20.544Z,33.07
2019-02-02T10:22:50.085Z,32.13
2019-02-02T10:25:21.461Z,30.10
2019-02-02T10:27:50.480Z,30.65
2019-02-02T10:30:22.930Z,31.10
2019-02-02T10:32:52.284Z,30.20
2019-02-02T10:35:21.419Z,29.90
2019-02-02T10:37:50.489Z,29.80
2019-02-02T10:40:19.480Z,30.13
2019-02-02T10:42:48.816Z,31.10
2019-02-02T10:45:18.001Z,30.90
2019-02-02T10:47:47.289Z,30.02
2019-02-02T10:50:17.034Z,28.40
2019-02-02T10:52:46.513Z,29.87
2019-02-02T10:55:15.845Z,26.83
2019-02-02T10:57:45.361Z,28.20
2019-02-02T11:00:20.244Z,29.95
2019-02-02T11:02:49.244Z,29.30
2019-02-02T11:05:18.588Z,27.70
2019-02-02T11:07:47.983Z,29.97
2019-02-02T11:10:19.416Z,27.13
2019-02-02T11:12:48.979Z,28.43
2019-02-02T11:15:18.504Z,25.97
2019-02-02T11:17:48.388Z,19.60
2019-02-02T11:20:29.266Z,26.20
2019-02-02T11:22:58.654Z,26.60
2019-02-02T11:25:27.836Z,27.80
2019-02-02T11:27:57.459Z,26.20
2019-02-02T11:30:27.530Z,26.00
2019-02-02T11:32:56.783Z,25.47
2019-02-02T11:35:25.948Z,25.20
2019-02-02T11:37:54.868Z,27.63
2019-02-02T11:40:26.280Z,26.20
2019-02-02T11:42:55.548Z,26.07
2019-02-02T11:45:24.500Z,26.70
2019-02-02T11:47:53.868Z,25.70
2019-02-02T11:50:23.471Z,27.30
2019-02-02T11:52:52.716Z,29.30
2019-02-02T11:55:21.620Z,29.37
2019-02-02T11:57:50.845Z,28.37
2019-02-02T12:00:31.716Z,27.13
2019-02-02T12:03:04.225Z,28.13
2019-02-02T12:05:31.857Z,25.67
2019-02-02T12:08:00.824Z,25.13
2019-02-02T12:10:30.429Z,25.97
2019-02-02T12:12:59.393Z,27.33
2019-02-02T12:15:28.324Z,24.77
2019-02-02T12:17:57.496Z,26.33
2019-02-02T12:20:27.249Z,27.17
2019-02-02T12:22:56.243Z,26.30
2019-02-02T12:25:25.186Z,27.07
2019-02-02T12:27:54.152Z,25.33
2019-02-02T12:30:31.520Z,26.47
2019-02-02T12:33:02.976Z,28.30
2019-02-02T12:35:31.386Z,28.90
2019-02-02T12:38:00.633Z,26.30
2019-02-02T12:40:29.615Z,25.63
2019-02-02T12:42:58.564Z,26.30
2019-02-02T12:45:33.629Z,25.87
2019-02-02T12:48:02.588Z,26.53
2019-02-02T12:50:31.525Z,26.07
2019-02-02T12:53:00.493Z,27.33
2019-02-02T12:55:31.495Z,25.03
2019-02-02T12:58:00.400Z,25.43
2019-02-02T13:00:29.397Z,27.07
2019-02-02T13:02:58.417Z,25.40
2019-02-02T13:05:27.592Z,26.30
2019-02-02T13:08:00.804Z,28.73
2019-02-02T13:10:29.768Z,31.07
2019-02-02T13:12:58.699Z,27.50
2019-02-02T13:15:27.754Z,28.10
2019-02-02T13:17:56.632Z,26.47
2019-02-02T13:20:25.556Z,26.87
2019-02-02T13:22:54.536Z,27.60
2019-02-02T13:25:23.999Z,24.20
2019-02-02T13:27:53.663Z,25.90
2019-02-02T13:30:28.057Z,26.73
2019-02-02T13:32:57.038Z,28.90
2019-02-02T13:35:26.103Z,27.73
2019-02-02T13:37:55.232Z,28.57
2019-02-02T13:40:24.995Z,28.27
2019-02-02T13:42:54.013Z,27.47
2019-02-02T13:45:23.505Z,26.80
2019-02-02T13:47:52.445Z,27.53
2019-02-02T13:50:21.475Z,25.60
2019-02-02T13:52:50.500Z,25.97
2019-02-02T13:55:19.752Z,27.13
2019-02-02T13:57:49.192Z,25.00
2019-02-02T14:00:23.262Z,25.77
2019-02-02T14:03:02.268Z,26.87
2019-02-02T14:05:23.183Z,23.93
2019-02-02T14:07:52.141Z,25.23
2019-02-02T14:10:23.520Z,26.57
2019-02-02T14:12:52.524Z,26.33
2019-02-02T14:15:22.082Z,26.80
2019-02-02T14:17:50.995Z,28.70
2019-02-02T14:20:20.005Z,28.80
2019-02-02T14:22:48.788Z,27.47
2019-02-02T14:25:18.096Z,28.90
2019-02-02T14:27:47.252Z,28.03
2019-02-02T14:30:18.639Z,26.30
2019-02-02T14:32:47.546Z,26.33
2019-02-02T14:35:17.281Z,28.10
2019-02-02T14:37:46.239Z,27.73
2019-02-02T14:40:15.944Z,26.13
2019-02-02T14:42:44.841Z,28.67
2019-02-02T14:45:16.115Z,27.63
2019-02-02T14:47:45.076Z,28.43
2019-02-02T14:50:21.350Z,27.17
2019-02-02T14:52:51.141Z,26.70
2019-02-02T14:55:27.647Z,24.23
2019-02-02T14:57:57.462Z,25.37
2019-02-02T15:00:30.072Z,25.50
2019-02-02T15:02:59.456Z,26.93
2019-02-02T15:05:28.996Z,27.97
2019-02-02T15:07:57.992Z,27.63
2019-02-02T15:10:28.074Z,28.50
2019-02-02T15:12:57.000Z,26.20
2019-02-02T15:15:25.976Z,26.63
2019-02-02T15:17:54.885Z,26.17
2019-02-02T15:20:29.605Z,26.43
2019-02-02T15:22:59.716Z,27.20
2019-02-02T15:25:28.712Z,27.63
2019-02-02T15:27:58.187Z,28.17
2019-02-02T15:30:27.992Z,29.17
2019-02-02T15:32:56.880Z,27.50
2019-02-02T15:35:25.896Z,28.67
2019-02-02T15:37:54.860Z,29.47
2019-02-02T15:40:23.809Z,28.60
2019-02-02T15:42:52.660Z,28.27
2019-02-02T15:45:22.864Z,25.40
2019-02-02T15:47:52.000Z,27.07
2019-02-02T15:50:20.948Z,27.93
2019-02-02T15:52:49.840Z,26.30
2019-02-02T15:55:20.809Z,27.20
2019-02-02T15:57:49.724Z,26.37
2019-02-02T16:00:20.916Z,26.97
2019-02-02T16:02:49.913Z,27.27
2019-02-02T16:05:18.994Z,25.43
2019-02-02T16:07:47.978Z,25.83
2019-02-02T16:10:19.425Z,24.00
2019-02-02T16:12:48.725Z,25.87
2019-02-02T16:15:17.716Z,26.57
2019-02-02T16:17:46.741Z,26.00
2019-02-02T16:20:21.397Z,26.10
2019-02-02T16:22:50.781Z,23.80
2019-02-02T16:25:19.790Z,25.60
2019-02-02T16:27:48.941Z,24.20
2019-02-02T16:30:20.488Z,24.20
2019-02-02T16:32:49.472Z,27.07
2019-02-02T16:35:18.880Z,25.47
2019-02-02T16:37:47.864Z,24.87
2019-02-02T16:40:18.749Z,25.30
2019-02-02T16:42:47.732Z,24.40
2019-02-02T16:45:18.500Z,25.90
2019-02-02T16:47:47.388Z,27.20
2019-02-02T16:50:17.113Z,28.10
2019-02-02T16:52:46.328Z,28.87
2019-02-02T16:55:15.775Z,25.20
2019-02-02T16:57:44.872Z,24.70
2019-02-02T17:00:16.696Z,26.10
2019-02-02T17:02:45.612Z,22.97
2019-02-02T17:05:14.633Z,24.97
2019-02-02T17:07:46.267Z,25.43
2019-02-02T17:10:19.288Z,25.70
2019-02-02T17:12:48.276Z,26.50
2019-02-02T17:15:17.476Z,27.20
2019-02-02T17:17:46.808Z,28.30
2019-02-02T17:20:18.076Z,32.20
2019-02-02T17:22:47.336Z,32.07
2019-02-02T17:25:17.544Z,28.97
2019-02-02T17:27:46.520Z,27.23
2019-02-02T17:30:17.829Z,30.53
2019-02-02T17:32:46.828Z,28.40
2019-02-02T17:35:15.708Z,29.07
2019-02-02T17:37:44.893Z,27.87
2019-02-02T17:40:21.995Z,29.07
2019-02-02T17:42:51.075Z,29.53
2019-02-02T17:45:20.696Z,30.00
2019-02-02T17:47:50.029Z,31.33
2019-02-02T17:50:20.632Z,32.87
2019-02-02T17:52:49.853Z,35.10
2019-02-02T17:55:18.832Z,36.70
2019-02-02T17:57:49.712Z,40.17
2019-02-02T18:00:23.851Z,39.53
2019-02-02T18:02:52.727Z,33.97
2019-02-02T18:05:21.893Z,31.20
2019-02-02T18:07:50.780Z,30.53
2019-02-02T18:10:19.788Z,28.43
2019-02-02T18:12:49.008Z,26.60
2019-02-02T18:15:18.306Z,25.27
2019-02-02T18:17:47.329Z,27.10
2019-02-02T18:20:16.468Z,28.97
2019-02-02T18:22:45.475Z,26.53
2019-02-02T18:25:15.017Z,27.53
2019-02-02T18:27:43.893Z,27.50
2019-02-02T18:30:18.024Z,32.17
2019-02-02T18:32:47.140Z,30.60
2019-02-02T18:35:16.522Z,28.40
2019-02-02T18:37:45.516Z,25.20
2019-02-02T18:40:16.065Z,27.40
2019-02-02T18:42:44.876Z,26.93
2019-02-02T18:45:22.516Z,25.63
2019-02-02T18:47:51.760Z,25.17
2019-02-02T18:50:20.632Z,25.50
2019-02-02T18:52:49.944Z,28.00
2019-02-02T18:55:25.379Z,27.77
2019-02-02T18:57:54.393Z,25.63
2019-02-02T19:00:24.260Z,24.70
2019-02-02T19:02:53.446Z,25.73
2019-02-02T19:05:22.512Z,23.40
2019-02-02T19:07:51.744Z,23.43
2019-02-02T19:10:23.641Z,22.57
2019-02-02T19:12:52.576Z,23.13
2019-02-02T19:15:21.601Z,23.60
2019-02-02T19:17:50.764Z,23.77
2019-02-02T19:20:20.731Z,24.87
2019-02-02T19:22:49.652Z,24.70
2019-02-02T19:25:18.547Z,23.97
2019-02-02T19:27:47.492Z,24.60
2019-02-02T19:30:21.652Z,23.73
2019-02-02T19:32:50.766Z,23.27
2019-02-02T19:35:20.037Z,22.27
2019-02-02T19:37:49.294Z,23.37
2019-02-02T19:40:19.401Z,23.30
2019-02-02T19:42:48.702Z,21.20
2019-02-02T19:45:19.653Z,21.20
2019-02-02T19:47:48.716Z,21.30
2019-02-02T19:50:19.575Z,21.50
2019-02-02T19:52:48.791Z,20.97
2019-02-02T19:55:17.941Z,19.23
2019-02-02T19:57:46.812Z,19.00
2019-02-02T20:00:18.605Z,18.00
2019-02-02T20:02:47.689Z,17.17
2019-02-02T20:05:28.170Z,19.77
2019-02-02T20:07:47.861Z,18.97
2019-02-02T20:10:17.528Z,18.90
2019-02-02T20:12:46.796Z,20.37
2019-02-02T20:15:17.508Z,17.80
2019-02-02T20:17:46.456Z,21.87
2019-02-02T20:20:17.818Z,21.30
2019-02-02T20:22:46.996Z,22.77
2019-02-02T20:25:16.744Z,22.37
2019-02-02T20:27:45.700Z,25.00
2019-02-02T20:30:19.824Z,24.40
2019-02-02T20:32:48.924Z,23.67
2019-02-02T20:35:18.716Z,21.70
2019-02-02T20:37:47.766Z,19.70
2019-02-02T20:40:18.515Z,22.77
2019-02-02T20:42:47.472Z,22.43
2019-02-02T20:45:18.560Z,22.30
2019-02-02T20:47:47.681Z,24.83
2019-02-02T20:50:17.859Z,24.10
2019-02-02T20:52:48.006Z,25.60
2019-02-02T20:55:22.884Z,23.50
2019-02-02T20:57:52.657Z,20.87
2019-02-02T21:00:23.910Z,20.23
2019-02-02T21:02:52.925Z,21.43
2019-02-02T21:05:21.832Z,21.13
2019-02-02T21:09:12.799Z,22.20
2019-02-02T21:11:13.088Z,23.00
2019-02-02T21:13:48.309Z,27.40
2019-02-02T21:16:17.184Z,23.30
2019-02-02T21:18:45.992Z,24.10
2019-02-02T21:21:15.026Z,22.43
2019-02-02T21:23:44.224Z,25.27
2019-02-02T21:26:13.133Z,24.20
2019-02-02T21:28:50.133Z,22.90
2019-02-02T21:31:12.768Z,24.00
2019-02-02T21:33:42.957Z,22.70
2019-02-02T21:36:12.184Z,25.07
2019-02-02T21:38:41.192Z,32.10
2019-02-02T21:41:10.287Z,29.17
2019-02-02T21:43:39.160Z,26.40
2019-02-02T21:46:08.156Z,24.87
2019-02-02T21:48:36.959Z,23.40
2019-02-02T21:51:06.201Z,21.73
2019-02-02T21:53:35.703Z,19.70
2019-02-02T21:56:05.005Z,20.30
2019-02-02T21:58:34.027Z,21.50
2019-02-02T22:01:02.917Z,21.27
2019-02-02T22:03:31.928Z,20.03
2019-02-02T22:06:00.929Z,21.57
2019-02-02T22:08:29.820Z,22.17
2019-02-02T22:10:58.697Z,21.90
2019-02-02T22:13:28.057Z,21.80
2019-02-02T22:16:12.473Z,19.80
2019-02-02T22:18:41.358Z,20.20
2019-02-02T22:21:10.172Z,19.37
2019-02-02T22:23:39.004Z,18.40
2019-02-02T22:26:08.348Z,19.80
2019-02-02T22:28:37.262Z,19.17
2019-02-02T22:31:08.123Z,20.33
2019-02-02T22:33:36.936Z,20.00
2019-02-02T22:36:06.353Z,22.80
2019-02-02T22:38:35.177Z,21.50
2019-02-02T22:41:06.866Z,20.70
2019-02-02T22:43:34.756Z,20.17
2019-02-02T22:46:03.636Z,19.47
2019-02-02T22:48:32.660Z,17.60
2019-02-02T22:51:01.564Z,17.33
2019-02-02T22:53:30.380Z,16.73
2019-02-02T22:55:59.300Z,18.50
2019-02-02T22:58:28.592Z,20.17
2019-02-02T23:01:09.330Z,16.90
2019-02-02T23:04:20.408Z,18.30
2019-02-02T23:06:59.279Z,18.53
2019-02-02T23:10:07.481Z,18.50
2019-02-02T23:13:14.240Z,18.40
2019-02-02T23:16:25.666Z,15.38
2019-02-02T23:18:55.140Z,18.77
2019-02-02T23:21:24.861Z,15.03
2019-02-02T23:23:53.781Z,15.88
2019-02-02T23:26:22.740Z,16.87
2019-02-02T23:28:51.612Z,16.03
2019-02-02T23:31:20.980Z,16.03
2019-02-02T23:33:49.852Z,13.67
2019-02-02T23:36:18.965Z,15.73
2019-02-02T23:38:47.864Z,14.27
2019-02-02T23:41:16.964Z,15.95
2019-02-02T23:43:45.812Z,13.75
2019-02-02T23:46:14.981Z,15.38
2019-02-02T23:48:43.822Z,14.30
2019-02-02T23:51:13.021Z,14.30
2019-02-02T23:53:42.000Z,14.70
2019-02-02T23:56:11.488Z,14.47
2019-02-02T23:58:40.312Z,14.98
